Tinker Air Force Base
KTIK : now visible

Airfield :











YOU CAN JOIN US ON...

 
LOGIN :

Register | Disclaimer

   EN    FR    IT 

 









Legend :    VFR   Marginal VFR   IFR   Intensive IFR   Very Intensive IFR
Visi :
Ceiling :
>= 8 km
>= 3000ft
5 to 8 km
1000 to 3000 ft
1500m to 5 km
500 to 1000 ft
800 to 1500m
200 to 500 ft
< 800m
< 200 ft
Symbols :   Thunderstorms  Fog  Heavy snow  Heavy precipitations  Wind > 20 kt







- Airport Elevation : 1291 ft


KTIK - Tinker Air Force Base

CURRENT METAR :
  • 260630Z 06007KT 10SM VCTS FEW013 18/18 A3003 RMK AO2A RAE29 TSE30 PRESFR SLP165

EXPIRED METARs :
  • 260556Z 22006KT 9SM -TSRA BKN031 OVC060 18/18 A3011 RMK AO2A SLP192 P0036 60122 T01800180 10260 20179 402900175 52041
  • 260456Z 09003KT 7SM -TSRA BR FEW011 OVC041 19/18 A3006 RMK AO2A PK WND 25044/03 RAE0358RAB05 TSE00TSB02 SLP175 P0082 T01850183
  • 260433Z 36009KT 6SM +TSRA BR OVC019 18/18 A3005 RMK CIG 014V019 CIG 014 RWY31 CIG 014 RWY36 PRESFR SLP173
  • 260421Z 23009G23KT 1 3/8SM +TSRA BR BKN014 OVC022 18/17 A3007 RMK VIS 3/4V1 3/8 CIG 009 RWY31 CIG 009 RWY36 PRESFR SLP180
  • 260417Z 24016G23KT 1SM R18/3500VP6000FT +TSRA BR BKN012 OVC023CB 18/17 A3009 RMK AO2A VIS 3/4V4 BKN V SCT CIG 009 RWY31 CIG 009 RWY36 SLP186
  • 260408Z 25013G44KT 4SM +TSRA SCT012 BKN021CB OVC040 21/18 A3008 RMK PRESFR SLP182
  • 260358Z 18009KT 7SM -TSRA BKN031CB OVC050 23/21 A3002 RMK PK WND 27026/58 SLP161 P0004 T02290206

TAF AMD TAF KTIK
Valid from the 26 at 06:00 until the 27 at 07:00 UTC


260650Z 2606/2707 17012KT 9999 BKN025 520204 QNH2991INS
TEMPO 2606/2607 07010KT 9000 TSRA OVC008CB
BECMG 2612/2613 18009KT 9999 OVC012 WS020/18040KT QNH3000INS
BECMG 2614/2615 18015G25KT 9999 BKN040 QNH2994INS
BECMG 2623/2624 16012KT 9999 SCT030 QNH2992INS TX28/2621Z TN17/2612Z
KZFW FIR / North America



MET'MAP, your aeronautical weather chart ! - Copyright ORBIFLY December 2007 - Disclaimer

ORBIFLY MET'MAP TEAM :

Programming & Development : Alexandra Zaïnal
Concept & Development : Baudouin d'Aumeries
Co-Development & Prog : Marc-Olivier Méhu
Technical & hardware support : Manuel Goepfert

Contact : metmap@orbifly.com




SOURCES & CREDITS :

   NOAA       Earth
Advisory